KCBE

Greater Cumberland Regional Airport

Cumberland, West Virginia, USA
METAR KCBE 181540Z AUTO 34005KT 10SM SCT048 09/M03 A3050 RMK AO2 T00911025
Observed Flight Rules
Oct-18 @ 15:40 UTC (16 minutes ago) Visual Flight Rules
Wind Visibility Clouds
340° at 5 knots 10 miles
  • Scattered at 4,800' AGL
Temperatures Readings
Current 9°C / 48°F
Dewpoint -3°C / 27°F
Humidity 43%
Altimeter 30.5" Hg
Pressure 1033 hPa
Elevation 236
METAR KCBE 181540Z AUTO 34005KT 10SM SCT048 09/M03 A3050 RMK AO2 T00911025
Observed Flight Rules
Oct-18 @ 15:40 UTC
(16 minutes ago)
VFR
Wind Visibility
340° at 5 knots 10 miles
Clouds
  • Scattered at 4,800' AGL
Temperature Dewpoint
9°C / 48°F -3°C / 27°F
Humidity Altimeter Pressure
43% 30.5" Hg 1033 hPa